KPNT

Pontiac Municipal Airport

Pontiac, Illinois, USA
METAR KPNT 181135Z AUTO 00000KT 10SM CLR M02/M02 A3055 RMK AO2 T10211023
Observed Flight Rules
Oct-18 @ 11:35 UTC (28 minutes ago) Visual Flight Rules
Visibility Clouds
10 miles
  • Clear skies
Temperatures Readings
Current -2°C / 28°F
Dewpoint -2°C / 28°F
Humidity 100%
Altimeter 30.55" Hg
Pressure 1035 hPa
Elevation 201
METAR KPNT 181135Z AUTO 00000KT 10SM CLR M02/M02 A3055 RMK AO2 T10211023
Observed Flight Rules
Oct-18 @ 11:35 UTC
(28 minutes ago)
VFR
Clouds
  • Clear skies
Temperature Dewpoint
-2°C / 28°F -2°C / 28°F
Humidity Altimeter Pressure
100% 30.55" Hg 1035 hPa